Moody AFB, Georgia
Current Conditions -  °F | °C
As of 3:58 AM on Wednesday 28 Jan 2015 (Local Time) from KVAD Reporting Station
Clear Clear  
Wind Chill: 36°   Ceiling: Unl
Heat Index: 36°   Visibility: 10mi
Dew Point: 31°   Wind: 2mph
Humidity: 82%   Direction: 350°N
Pressure: 30.13"   Gusts: NA
Location:  30.9753°N, 83.2042°W
Report Text: KVAD 280858Z AUTO 35002KT 10SM CLR 02/00 A3013 RMK AO2 SLP206 T00221005 $
Loading
Personal Weather Stations






























Interactive Weather Map New forecast layout! Learn more

10-Day Weather Forecast

Advertisements
Track Severe Weather on mobile